Chalkyitsik, Alaska
Current Conditions -  °F | °C
As of 4:36 AM on Saturday 25 Oct 2014 (Local Time) from PFYU Reporting Station
Overcast Overcast  
Wind Chill: 18°   Ceiling: 2300
Heat Index: 18°   Visibility: 10mi
Dew Point: 16°   Wind: 3mph
Humidity: 93%   Direction: 230°SW
Pressure: 29.96"   Gusts: NA
Location:  66.65°N, 143.72°W
Report Text: PFYU 251236Z 23003KT 10SM OVC023 M08/M09 A2996 RMK AO1
Loading
Personal Weather Stations






























Interactive Weather Map
Tropical Storm Tracking
New forecast layout! Learn more

10-Day Weather Forecast

Advertisements
Track Severe Weather on mobile